createdAt,value
2023-05-14T00:00:29.287Z,10.60
2023-05-14T00:02:56.341Z,10.50
2023-05-14T00:05:23.310Z,10.40
2023-05-14T00:07:50.233Z,10.40
2023-05-14T00:10:18.996Z,10.40
2023-05-14T00:12:45.809Z,10.30
2023-05-14T00:15:12.603Z,10.30
2023-05-14T00:17:39.369Z,10.20
2023-05-14T00:20:11.084Z,10.30
2023-05-14T00:22:39.234Z,10.30
2023-05-14T00:25:07.589Z,10.30
2023-05-14T00:27:35.274Z,10.30
2023-05-14T00:30:02.731Z,10.30
2023-05-14T00:32:29.485Z,10.20
2023-05-14T00:34:56.239Z,10.20
2023-05-14T00:37:22.892Z,10.20
2023-05-14T00:39:49.551Z,10.10
2023-05-14T00:42:16.213Z,10.00
2023-05-14T00:44:42.898Z,10.00
2023-05-14T00:47:09.720Z,9.90
2023-05-14T00:49:36.942Z,9.90
2023-05-14T00:52:03.928Z,9.90
2023-05-14T00:54:30.686Z,9.90
2023-05-14T00:56:57.595Z,9.80
2023-05-14T00:59:24.375Z,9.80
2023-05-14T01:01:51.156Z,9.80
2023-05-14T01:04:18.410Z,9.80
2023-05-14T01:07:01.539Z,9.70
2023-05-14T01:09:55.053Z,9.70
2023-05-14T01:12:33.419Z,9.60
2023-05-14T01:15:02.832Z,9.60
2023-05-14T01:17:32.826Z,9.60
2023-05-14T01:20:00.550Z,9.60
2023-05-14T01:22:27.352Z,9.60
2023-05-14T01:24:54.057Z,9.50
2023-05-14T01:27:55.234Z,9.50
2023-05-14T01:30:27.922Z,9.50
2023-05-14T01:32:58.001Z,9.30
2023-05-14T01:35:27.724Z,9.20
2023-05-14T01:38:03.395Z,9.20
2023-05-14T01:40:31.337Z,9.10
2023-05-14T01:42:58.563Z,9.10
2023-05-14T01:45:25.354Z,9.10
2023-05-14T01:47:52.664Z,9.10
2023-05-14T01:50:19.526Z,9.10
2023-05-14T01:52:48.152Z,9.10
2023-05-14T01:55:15.779Z,9.00
2023-05-14T01:57:42.496Z,9.10
2023-05-14T02:00:09.524Z,9.00
2023-05-14T02:02:42.025Z,9.10
2023-05-14T02:05:12.328Z,9.00
2023-05-14T02:07:39.119Z,8.90
2023-05-14T02:10:06.471Z,9.00
2023-05-14T02:12:33.358Z,9.00
2023-05-14T02:15:00.029Z,8.90
2023-05-14T02:17:27.892Z,9.00
2023-05-14T02:19:54.679Z,8.90
2023-05-14T02:22:21.347Z,8.90
2023-05-14T02:24:49.665Z,8.80
2023-05-14T02:27:16.842Z,8.80
2023-05-14T02:29:43.472Z,8.80
2023-05-14T02:32:10.210Z,8.80
2023-05-14T02:34:36.921Z,8.70
2023-05-14T02:37:03.826Z,8.60
2023-05-14T02:39:31.456Z,8.60
2023-05-14T02:41:58.072Z,8.50
2023-05-14T02:44:24.775Z,8.50
2023-05-14T02:46:52.108Z,8.40
2023-05-14T02:49:18.835Z,8.40
2023-05-14T02:51:45.557Z,8.40
2023-05-14T02:54:12.246Z,8.40
2023-05-14T02:56:38.941Z,8.40
2023-05-14T02:59:05.614Z,8.40
2023-05-14T03:01:32.610Z,8.40
2023-05-14T03:03:59.860Z,8.30
2023-05-14T03:06:26.574Z,8.30
2023-05-14T03:08:53.299Z,8.30
2023-05-14T03:11:20.599Z,8.20
2023-05-14T03:13:47.344Z,8.20
2023-05-14T03:16:14.116Z,8.20
2023-05-14T03:18:40.958Z,8.20
2023-05-14T03:21:09.116Z,8.20
2023-05-14T03:23:35.932Z,8.20
2023-05-14T03:26:02.621Z,8.20
2023-05-14T03:28:29.316Z,8.20
2023-05-14T03:30:56.070Z,8.20
2023-05-14T03:33:23.620Z,8.30
2023-05-14T03:35:50.316Z,8.30
2023-05-14T03:38:17.075Z,8.30
2023-05-14T03:40:46.719Z,8.30
2023-05-14T03:43:13.447Z,8.30
2023-05-14T03:45:40.370Z,8.30
2023-05-14T03:48:07.168Z,8.40
2023-05-14T03:50:34.022Z,8.30
2023-05-14T03:53:00.734Z,8.30
2023-05-14T03:55:29.970Z,8.20
2023-05-14T03:57:56.717Z,8.20
2023-05-14T04:00:23.630Z,8.10
2023-05-14T04:02:52.402Z,8.10
2023-05-14T04:05:19.140Z,8.00
2023-05-14T04:07:46.133Z,7.90
2023-05-14T04:10:13.687Z,7.90
2023-05-14T04:12:40.342Z,7.90
2023-05-14T04:15:08.177Z,8.00
2023-05-14T04:17:35.273Z,8.10
2023-05-14T04:20:02.072Z,8.10
2023-05-14T04:22:28.723Z,8.10
2023-05-14T04:24:55.384Z,8.10
2023-05-14T04:27:22.313Z,8.10
2023-05-14T04:29:49.915Z,8.20
2023-05-14T04:32:17.715Z,8.20
2023-05-14T04:34:44.534Z,8.20
2023-05-14T04:37:11.208Z,8.40
2023-05-14T04:39:38.358Z,8.50
2023-05-14T04:42:06.652Z,8.60
2023-05-14T04:44:34.631Z,8.70
2023-05-14T04:47:01.993Z,8.70
2023-05-14T04:49:29.014Z,8.70
2023-05-14T04:51:55.795Z,8.70
2023-05-14T04:54:22.738Z,8.80
2023-05-14T04:56:51.099Z,8.90
2023-05-14T04:59:17.964Z,8.90
2023-05-14T05:01:45.778Z,8.90
2023-05-14T05:04:12.935Z,8.90
2023-05-14T05:06:39.803Z,8.90
2023-05-14T05:09:06.533Z,9.00
2023-05-14T05:11:33.236Z,9.20
2023-05-14T05:13:59.917Z,9.30
2023-05-14T05:16:26.614Z,9.30
2023-05-14T05:18:53.484Z,9.40
2023-05-14T05:21:20.489Z,9.60
2023-05-14T05:23:47.187Z,9.60
2023-05-14T05:26:13.848Z,9.80
2023-05-14T05:28:40.589Z,9.90
2023-05-14T05:31:07.502Z,10.00
2023-05-14T05:33:35.526Z,10.40
2023-05-14T05:36:02.237Z,11.70
2023-05-14T05:38:28.928Z,12.20
2023-05-14T05:40:55.783Z,12.90
2023-05-14T05:43:22.407Z,13.50
2023-05-14T05:45:49.079Z,13.80
2023-05-14T05:48:15.723Z,14.10
2023-05-14T05:50:44.666Z,14.00
2023-05-14T05:53:11.350Z,13.90
2023-05-14T05:55:38.108Z,14.00
2023-05-14T05:58:04.836Z,13.50
2023-05-14T06:00:32.070Z,13.10
2023-05-14T06:02:58.753Z,12.80
2023-05-14T06:05:25.924Z,12.70
2023-05-14T06:07:55.487Z,12.80
2023-05-14T06:10:22.417Z,12.90
2023-05-14T06:12:49.385Z,13.00
2023-05-14T06:15:16.100Z,12.80
2023-05-14T06:17:42.819Z,12.80
2023-05-14T06:20:09.919Z,12.80
2023-05-14T06:22:36.661Z,12.90
2023-05-14T06:25:03.737Z,13.20
2023-05-14T06:27:30.554Z,13.70
2023-05-14T06:29:57.269Z,13.90
2023-05-14T06:32:24.184Z,14.20
2023-05-14T06:34:50.961Z,14.10
2023-05-14T06:37:17.615Z,14.00
2023-05-14T06:39:49.790Z,14.10
2023-05-14T06:42:19.373Z,13.90
2023-05-14T06:44:47.034Z,14.40
2023-05-14T06:47:13.720Z,14.70
2023-05-14T06:49:40.397Z,15.00
2023-05-14T06:52:08.113Z,15.20
2023-05-14T06:54:34.790Z,15.30
2023-05-14T06:57:01.511Z,15.50
2023-05-14T06:59:28.183Z,15.70
2023-05-14T07:01:55.466Z,15.90
2023-05-14T07:04:22.210Z,16.10
2023-05-14T07:06:48.946Z,16.10
2023-05-14T07:09:16.444Z,15.70
2023-05-14T07:11:43.376Z,15.80
2023-05-14T07:14:10.064Z,15.80
2023-05-14T07:16:37.032Z,15.90
2023-05-14T07:19:03.794Z,15.90
2023-05-14T07:21:30.459Z,16.30
2023-05-14T07:23:57.183Z,16.20
2023-05-14T07:26:24.535Z,16.40
2023-05-14T07:28:51.314Z,16.50
2023-05-14T07:31:18.050Z,16.80
2023-05-14T07:33:44.926Z,17.00
2023-05-14T07:36:11.763Z,17.30
2023-05-14T07:38:38.516Z,17.40
2023-05-14T07:41:05.443Z,17.40
2023-05-14T07:43:32.150Z,17.60
2023-05-14T07:45:58.798Z,17.60
2023-05-14T07:48:25.519Z,17.70
2023-05-14T07:50:52.217Z,18.10
2023-05-14T07:53:18.908Z,17.60
2023-05-14T07:55:48.052Z,17.20
2023-05-14T07:58:14.846Z,17.20
2023-05-14T08:00:41.537Z,16.80
2023-05-14T08:03:08.387Z,16.50
2023-05-14T08:05:35.063Z,16.50
2023-05-14T08:08:01.769Z,16.50
2023-05-14T08:10:28.850Z,16.90
2023-05-14T08:12:55.854Z,16.80
2023-05-14T08:15:24.566Z,17.10
2023-05-14T08:17:53.183Z,17.10
2023-05-14T08:20:19.949Z,17.20
2023-05-14T08:22:46.691Z,17.00
2023-05-14T08:25:14.446Z,16.90
2023-05-14T08:27:41.101Z,17.10
2023-05-14T08:30:08.287Z,16.90
2023-05-14T08:32:34.952Z,17.00
2023-05-14T08:35:01.651Z,17.20
2023-05-14T08:37:28.360Z,17.50
2023-05-14T08:39:56.115Z,17.30
2023-05-14T08:42:25.708Z,17.60
2023-05-14T08:45:02.148Z,18.00
2023-05-14T08:47:30.656Z,18.20
2023-05-14T08:50:08.178Z,18.20
2023-05-14T08:52:35.454Z,17.80
2023-05-14T08:55:06.282Z,17.40
2023-05-14T08:57:33.816Z,17.30
2023-05-14T09:00:01.968Z,17.40
2023-05-14T09:02:30.563Z,17.90
2023-05-14T09:04:59.856Z,18.20
2023-05-14T09:07:26.891Z,18.20
2023-05-14T09:09:54.358Z,17.50
2023-05-14T09:12:21.776Z,17.30
2023-05-14T09:14:49.814Z,16.90
2023-05-14T09:17:17.457Z,16.50
2023-05-14T09:19:47.210Z,16.70
2023-05-14T09:22:15.569Z,17.10
2023-05-14T09:24:42.654Z,17.50
2023-05-14T09:27:15.075Z,17.30
2023-05-14T09:29:41.777Z,17.40
2023-05-14T09:32:10.200Z,17.00
2023-05-14T09:34:39.611Z,17.20
2023-05-14T09:37:08.690Z,17.10
2023-05-14T09:39:37.360Z,17.10
2023-05-14T09:42:04.733Z,16.90
2023-05-14T09:44:31.877Z,16.90
2023-05-14T09:46:58.636Z,16.70
2023-05-14T09:49:25.383Z,16.40
2023-05-14T09:51:52.106Z,16.20
2023-05-14T09:54:18.810Z,16.40
2023-05-14T09:56:45.678Z,16.90
2023-05-14T09:59:12.737Z,17.40
2023-05-14T10:01:43.084Z,18.00
2023-05-14T10:04:11.163Z,18.30
2023-05-14T10:06:39.415Z,18.70
2023-05-14T10:09:13.441Z,18.30
2023-05-14T10:11:44.146Z,18.10
2023-05-14T10:14:19.501Z,17.40
2023-05-14T10:16:54.119Z,17.60
2023-05-14T10:19:23.503Z,17.50
2023-05-14T10:21:56.830Z,17.80
2023-05-14T10:24:24.665Z,17.60
2023-05-14T10:26:52.179Z,17.60
2023-05-14T10:29:18.846Z,17.60
2023-05-14T10:31:53.562Z,18.30
2023-05-14T10:34:41.155Z,18.40
2023-05-14T10:37:27.160Z,17.90
2023-05-14T10:39:56.943Z,17.80
2023-05-14T10:42:24.700Z,18.10
2023-05-14T10:45:07.324Z,17.90
2023-05-14T10:47:36.892Z,18.00
2023-05-14T10:50:06.513Z,18.40
2023-05-14T10:52:34.970Z,18.70
2023-05-14T10:55:04.034Z,19.00
2023-05-14T10:57:32.111Z,18.80
2023-05-14T11:00:00.935Z,18.20
2023-05-14T11:02:39.116Z,18.40
2023-05-14T11:05:13.869Z,18.30
2023-05-14T11:07:42.787Z,17.80
2023-05-14T11:10:29.968Z,18.00
2023-05-14T11:12:58.100Z,18.30
2023-05-14T11:15:26.595Z,18.40
2023-05-14T11:17:54.055Z,18.30
2023-05-14T11:20:21.460Z,18.20
2023-05-14T11:22:49.281Z,18.40
2023-05-14T11:25:16.928Z,18.40
2023-05-14T11:27:45.564Z,18.40
2023-05-14T11:30:16.295Z,18.80
2023-05-14T11:32:48.639Z,19.50
2023-05-14T11:35:16.085Z,18.70
2023-05-14T11:37:43.674Z,18.70
2023-05-14T11:40:16.379Z,19.30
2023-05-14T11:42:43.135Z,19.60
2023-05-14T11:45:13.958Z,19.90
2023-05-14T11:47:43.531Z,20.40
2023-05-14T11:50:11.134Z,20.30
2023-05-14T11:52:40.551Z,20.20
2023-05-14T11:55:11.581Z,20.20
2023-05-14T11:57:38.439Z,20.10
2023-05-14T12:00:16.688Z,19.90
2023-05-14T12:02:43.645Z,20.20
2023-05-14T12:05:12.882Z,19.70
2023-05-14T12:07:39.665Z,19.90
2023-05-14T12:10:07.167Z,19.50
2023-05-14T12:12:37.125Z,20.10
2023-05-14T12:15:14.867Z,20.30
2023-05-14T12:17:41.740Z,20.60
2023-05-14T12:20:10.613Z,20.60
2023-05-14T12:22:37.716Z,20.40
2023-05-14T12:25:04.801Z,20.40
2023-05-14T12:27:31.496Z,19.90
2023-05-14T12:32:36.069Z,18.80
2023-05-14T12:35:03.101Z,18.80
2023-05-14T12:37:31.266Z,18.90
2023-05-14T12:39:58.023Z,18.90
2023-05-14T12:42:24.706Z,18.90
2023-05-14T12:44:51.339Z,19.10
2023-05-14T12:47:18.282Z,19.00
2023-05-14T12:49:45.096Z,18.60
2023-05-14T12:54:43.320Z,18.40
2023-05-14T12:57:10.232Z,18.70
2023-05-14T12:59:36.952Z,19.10
2023-05-14T13:02:03.721Z,19.20
2023-05-14T13:04:30.471Z,19.00
2023-05-14T13:06:57.309Z,19.30
2023-05-14T13:09:23.949Z,19.10
2023-05-14T13:11:50.637Z,19.30
2023-05-14T13:14:18.397Z,19.40
2023-05-14T13:16:46.887Z,19.00
2023-05-14T13:19:13.705Z,18.80
2023-05-14T13:21:40.501Z,18.70
2023-05-14T13:24:07.518Z,18.70
2023-05-14T13:26:34.223Z,18.70
2023-05-14T13:29:00.984Z,18.80
2023-05-14T13:31:27.790Z,18.70
2023-05-14T13:33:54.704Z,18.90
2023-05-14T13:36:21.385Z,19.10
2023-05-14T13:38:48.373Z,18.70
2023-05-14T13:41:15.037Z,18.90
2023-05-14T13:43:41.709Z,19.00
2023-05-14T13:46:08.507Z,18.80
2023-05-14T13:48:37.078Z,18.80
2023-05-14T13:51:03.820Z,18.80
2023-05-14T13:53:30.644Z,19.30
2023-05-14T13:55:58.439Z,19.80
2023-05-14T13:58:25.758Z,20.00
2023-05-14T14:00:53.422Z,19.60
2023-05-14T14:03:20.266Z,19.20
2023-05-14T14:05:46.997Z,19.20
2023-05-14T14:10:48.598Z,19.30
2023-05-14T14:13:15.387Z,19.40
2023-05-14T14:15:42.638Z,19.50
2023-05-14T14:18:09.337Z,19.40
2023-05-14T14:20:36.204Z,19.40
2023-05-14T14:23:02.920Z,19.00
2023-05-14T14:25:29.587Z,19.30
2023-05-14T14:27:56.384Z,19.50
2023-05-14T14:30:23.019Z,19.60
2023-05-14T14:32:50.296Z,19.30
2023-05-14T14:35:18.963Z,19.10
2023-05-14T14:37:49.093Z,19.00
2023-05-14T14:40:16.784Z,18.80
2023-05-14T14:42:43.825Z,19.00
2023-05-14T14:45:11.293Z,19.10
2023-05-14T14:47:37.949Z,19.20
2023-05-14T14:50:05.853Z,19.10
2023-05-14T14:52:32.589Z,18.90
2023-05-14T14:54:59.267Z,19.10
2023-05-14T14:57:26.658Z,19.50
2023-05-14T14:59:53.370Z,19.50
2023-05-14T15:02:20.144Z,19.30
2023-05-14T15:04:46.968Z,19.40
2023-05-14T15:07:15.831Z,19.30
2023-05-14T15:09:42.757Z,19.30
2023-05-14T15:12:10.753Z,19.20
2023-05-14T15:14:37.442Z,19.20
2023-05-14T15:17:04.389Z,19.30
2023-05-14T15:19:32.268Z,19.50
2023-05-14T15:21:58.952Z,19.30
2023-05-14T15:24:26.139Z,19.50
2023-05-14T15:26:53.729Z,19.30
2023-05-14T15:29:20.579Z,19.10
2023-05-14T15:31:47.457Z,19.40
2023-05-14T15:34:14.214Z,19.40
2023-05-14T15:36:40.914Z,19.40
2023-05-14T15:39:10.149Z,19.50
2023-05-14T15:41:37.265Z,19.20
2023-05-14T15:44:04.292Z,19.00
2023-05-14T15:46:31.168Z,18.90
2023-05-14T15:48:58.164Z,18.80
2023-05-14T15:51:24.935Z,18.80
2023-05-14T15:53:53.546Z,18.60
2023-05-14T15:56:21.449Z,18.80
2023-05-14T15:58:48.771Z,18.90
2023-05-14T16:01:15.738Z,19.10
2023-05-14T16:03:42.531Z,19.20
2023-05-14T16:06:09.791Z,19.30
2023-05-14T16:08:36.537Z,19.00
2023-05-14T16:11:03.372Z,19.10
2023-05-14T16:13:30.161Z,19.10
2023-05-14T16:15:56.821Z,19.00
2023-05-14T16:18:25.158Z,19.10
2023-05-14T16:20:51.973Z,19.20
2023-05-14T16:23:18.848Z,19.40
2023-05-14T16:25:45.541Z,19.60
2023-05-14T16:28:12.850Z,19.70
2023-05-14T16:30:39.470Z,19.40
2023-05-14T16:33:06.345Z,19.60
2023-05-14T16:35:33.082Z,19.50
2023-05-14T16:37:59.711Z,19.30
2023-05-14T16:40:26.437Z,19.50
2023-05-14T16:42:53.101Z,19.60
2023-05-14T16:45:19.745Z,19.90
2023-05-14T16:47:46.462Z,19.80
2023-05-14T16:50:13.168Z,19.60
2023-05-14T16:52:39.852Z,19.50
2023-05-14T16:55:07.054Z,19.50
2023-05-14T16:57:34.357Z,19.50
2023-05-14T17:00:01.234Z,19.00
2023-05-14T17:02:27.989Z,19.00
2023-05-14T17:04:55.242Z,19.10
2023-05-14T17:07:21.967Z,18.90
2023-05-14T17:09:48.782Z,18.70
2023-05-14T17:12:15.622Z,18.60
2023-05-14T17:14:42.270Z,18.50
2023-05-14T17:17:08.904Z,18.40
2023-05-14T17:19:36.002Z,18.20
2023-05-14T17:22:05.788Z,18.20
2023-05-14T17:24:32.661Z,18.30
2023-05-14T17:26:59.308Z,18.20
2023-05-14T17:29:26.275Z,18.30
2023-05-14T17:31:53.060Z,18.30
2023-05-14T17:34:19.773Z,18.40
2023-05-14T17:36:46.465Z,18.30
2023-05-14T17:39:13.112Z,18.00
2023-05-14T17:41:41.897Z,17.90
2023-05-14T17:44:10.711Z,18.00
2023-05-14T17:46:39.371Z,17.70
2023-05-14T17:49:06.055Z,18.00
2023-05-14T17:51:32.755Z,18.00
2023-05-14T17:53:59.563Z,18.00
2023-05-14T17:56:26.369Z,17.80
2023-05-14T17:58:53.004Z,17.50
2023-05-14T18:01:19.689Z,17.40
2023-05-14T18:03:46.508Z,17.40
2023-05-14T18:06:13.330Z,17.20
2023-05-14T18:08:39.962Z,17.10
2023-05-14T18:11:06.729Z,17.00
2023-05-14T18:13:33.498Z,16.90
2023-05-14T18:16:01.144Z,16.70
2023-05-14T18:18:27.865Z,16.60
2023-05-14T18:20:54.637Z,16.60
2023-05-14T18:23:21.341Z,16.30
2023-05-14T18:25:48.173Z,16.40
2023-05-14T18:28:15.528Z,16.30
2023-05-14T18:30:43.382Z,16.20
2023-05-14T18:33:10.333Z,16.10
2023-05-14T18:35:37.228Z,16.00
2023-05-14T18:38:04.136Z,16.00
2023-05-14T18:40:30.822Z,16.00
2023-05-14T18:42:58.005Z,16.00
2023-05-14T18:45:24.923Z,15.90
2023-05-14T18:47:51.919Z,15.80
2023-05-14T18:50:18.923Z,15.90
2023-05-14T18:52:45.637Z,15.80
2023-05-14T18:55:12.322Z,15.80
2023-05-14T18:57:39.040Z,15.80
2023-05-14T19:00:06.544Z,15.70
2023-05-14T19:02:33.350Z,15.60
2023-05-14T19:05:00.184Z,15.50
2023-05-14T19:07:27.617Z,15.40
2023-05-14T19:09:54.278Z,15.40
2023-05-14T19:12:20.927Z,15.40
2023-05-14T19:14:47.590Z,15.40
2023-05-14T19:17:14.330Z,15.40
2023-05-14T19:19:41.007Z,15.30
2023-05-14T19:22:08.462Z,15.30
2023-05-14T19:24:36.061Z,15.20
2023-05-14T19:27:02.692Z,15.20
2023-05-14T19:29:29.372Z,15.10
2023-05-14T19:31:56.150Z,15.20
2023-05-14T19:34:22.949Z,15.20
2023-05-14T19:36:50.289Z,15.20
2023-05-14T19:39:16.967Z,15.30
2023-05-14T19:41:43.891Z,15.30
2023-05-14T19:44:10.654Z,15.20
2023-05-14T19:46:37.406Z,15.10
2023-05-14T19:49:04.154Z,15.10
2023-05-14T19:51:31.016Z,15.00
2023-05-14T19:53:58.534Z,14.90
2023-05-14T19:56:27.091Z,14.70
2023-05-14T19:58:54.428Z,14.60
2023-05-14T20:01:21.279Z,14.40
2023-05-14T20:03:48.274Z,14.40
2023-05-14T20:06:15.033Z,14.10
2023-05-14T20:08:41.765Z,14.00
2023-05-14T20:11:08.443Z,14.00
2023-05-14T20:13:36.390Z,14.10
2023-05-14T20:16:03.374Z,14.10
2023-05-14T20:18:30.158Z,14.00
2023-05-14T20:20:56.926Z,14.20
2023-05-14T20:23:23.911Z,14.20
2023-05-14T20:25:51.536Z,14.10
2023-05-14T20:28:18.198Z,14.10
2023-05-14T20:30:44.893Z,13.90
2023-05-14T20:33:13.232Z,13.50
2023-05-14T20:35:43.592Z,13.40
2023-05-14T20:38:13.037Z,13.60
2023-05-14T20:40:40.178Z,13.70
2023-05-14T20:43:06.880Z,13.70
2023-05-14T20:45:33.578Z,13.60
2023-05-14T20:48:00.386Z,13.50
2023-05-14T20:50:27.802Z,13.40
2023-05-14T20:52:55.531Z,13.40
2023-05-14T20:55:22.281Z,13.30
2023-05-14T20:57:49.618Z,13.30
2023-05-14T21:00:16.763Z,13.20
2023-05-14T21:02:43.616Z,13.30
2023-05-14T21:05:10.656Z,13.40
2023-05-14T21:07:37.457Z,13.40
2023-05-14T21:10:04.549Z,13.40
2023-05-14T21:12:31.204Z,13.40
2023-05-14T21:14:57.816Z,13.40
2023-05-14T21:17:24.654Z,13.40
2023-05-14T21:19:51.378Z,13.40
2023-05-14T21:22:18.167Z,13.30
2023-05-14T21:24:44.944Z,13.30
2023-05-14T21:27:11.792Z,13.20
2023-05-14T21:29:39.551Z,13.20
2023-05-14T21:32:06.487Z,13.20
2023-05-14T21:34:33.327Z,13.10
2023-05-14T21:37:00.007Z,13.00
2023-05-14T21:39:26.711Z,12.90
2023-05-14T21:41:53.329Z,12.80
2023-05-14T21:44:21.548Z,12.80
2023-05-14T21:46:48.299Z,12.70
2023-05-14T21:49:14.964Z,12.60
2023-05-14T21:51:42.689Z,12.60
2023-05-14T21:54:09.672Z,12.40
2023-05-14T21:56:37.185Z,12.30
2023-05-14T21:59:04.714Z,12.00
2023-05-14T22:01:32.588Z,12.00
2023-05-14T22:04:00.523Z,12.00
2023-05-14T22:06:27.275Z,11.90
2023-05-14T22:08:53.939Z,11.80
2023-05-14T22:11:21.755Z,11.80
2023-05-14T22:13:48.424Z,11.90
2023-05-14T22:16:15.091Z,11.90
2023-05-14T22:18:42.547Z,11.90
2023-05-14T22:21:09.246Z,11.90
2023-05-14T22:23:36.124Z,11.80
2023-05-14T22:26:02.912Z,11.90
2023-05-14T22:28:29.584Z,11.90
2023-05-14T22:30:59.555Z,11.80
2023-05-14T22:33:26.307Z,11.70
2023-05-14T22:35:53.028Z,11.60
2023-05-14T22:38:20.279Z,11.60
2023-05-14T22:40:47.145Z,11.60
2023-05-14T22:43:13.873Z,11.70
2023-05-14T22:45:40.553Z,11.70
2023-05-14T22:48:07.296Z,11.70
2023-05-14T22:50:33.934Z,11.70
2023-05-14T22:53:00.610Z,11.70
2023-05-14T22:55:27.886Z,11.70
2023-05-14T22:57:54.754Z,11.80
2023-05-14T23:00:21.641Z,11.80
2023-05-14T23:02:48.367Z,11.60
2023-05-14T23:05:15.181Z,11.50
2023-05-14T23:07:41.938Z,11.50
2023-05-14T23:10:09.016Z,11.50
2023-05-14T23:12:35.679Z,11.50
2023-05-14T23:15:02.371Z,11.50
2023-05-14T23:17:29.204Z,11.60
2023-05-14T23:19:56.001Z,11.60
2023-05-14T23:22:22.697Z,11.60
2023-05-14T23:24:49.360Z,11.60
2023-05-14T23:27:16.152Z,11.60
2023-05-14T23:29:42.839Z,11.40
2023-05-14T23:32:09.555Z,11.40
2023-05-14T23:34:36.250Z,11.40
2023-05-14T23:37:02.944Z,11.40
2023-05-14T23:39:29.757Z,11.40
2023-05-14T23:41:56.391Z,11.30
2023-05-14T23:44:23.484Z,11.30
2023-05-14T23:46:50.590Z,11.30
2023-05-14T23:49:17.285Z,11.30
2023-05-14T23:51:43.991Z,11.30
2023-05-14T23:54:10.635Z,11.30
2023-05-14T23:56:37.384Z,11.20
2023-05-14T23:59:04.776Z,11.30
